sensor_id;sensor_type;location;lat;lon;timestamp;temperature;humidity
80964;DHT22;70425;59.322;13.486;2023-06-19T01:56:13;16.90;99.90
80964;DHT22;70425;59.322;13.486;2023-06-19T04:10:26;17.10;99.90
80964;DHT22;70425;59.322;13.486;2023-06-19T04:13:23;17.00;99.90
80964;DHT22;70425;59.322;13.486;2023-06-19T04:16:15;17.00;99.90
80964;DHT22;70425;59.322;13.486;2023-06-19T04:19:04;16.90;99.90
80964;DHT22;70425;59.322;13.486;2023-06-19T04:21:53;16.80;99.90
80964;DHT22;70425;59.322;13.486;2023-06-19T04:24:43;16.80;99.90
80964;DHT22;70425;59.322;13.486;2023-06-19T04:27:52;16.90;99.90
80964;DHT22;70425;59.322;13.486;2023-06-19T04:30:42;16.80;99.90
80964;DHT22;70425;59.322;13.486;2023-06-19T04:33:34;16.70;99.90
80964;DHT22;70425;59.322;13.486;2023-06-19T04:36:28;16.70;99.90
80964;DHT22;70425;59.322;13.486;2023-06-19T10:15:31;20.50;99.90
80964;DHT22;70425;59.322;13.486;2023-06-19T10:53:39;22.10;99.90
80964;DHT22;70425;59.322;13.486;2023-06-19T10:56:56;22.00;99.90
80964;DHT22;70425;59.322;13.486;2023-06-19T10:59:51;21.80;99.90
80964;DHT22;70425;59.322;13.486;2023-06-19T11:02:44;21.70;99.90
80964;DHT22;70425;59.322;13.486;2023-06-19T11:05:47;21.80;99.90
80964;DHT22;70425;59.322;13.486;2023-06-19T11:08:40;22.30;99.90
80964;DHT22;70425;59.322;13.486;2023-06-19T11:11:41;22.60;99.90
80964;DHT22;70425;59.322;13.486;2023-06-19T11:14:47;22.80;99.90
80964;DHT22;70425;59.322;13.486;2023-06-19T11:18:14;23.00;99.90
80964;DHT22;70425;59.322;13.486;2023-06-19T11:21:30;22.60;99.90
80964;DHT22;70425;59.322;13.486;2023-06-19T11:45:27;22.40;99.90
80964;DHT22;70425;59.322;13.486;2023-06-19T13:56:38;22.40;99.90
80964;DHT22;70425;59.322;13.486;2023-06-19T14:51:34;22.10;99.90
80964;DHT22;70425;59.322;13.486;2023-06-19T15:02:14;22.30;99.90
80964;DHT22;70425;59.322;13.486;2023-06-19T15:05:20;21.80;99.90
80964;DHT22;70425;59.322;13.486;2023-06-19T15:12:23;21.30;99.90
80964;DHT22;70425;59.322;13.486;2023-06-19T15:15:37;21.20;99.90
80964;DHT22;70425;59.322;13.486;2023-06-19T19:38:03;20.00;99.90
80964;DHT22;70425;59.322;13.486;2023-06-19T19:41:09;19.80;99.90
80964;DHT22;70425;59.322;13.486;2023-06-19T19:43:58;19.70;99.90
80964;DHT22;70425;59.322;13.486;2023-06-19T19:46:49;19.70;99.90
80964;DHT22;70425;59.322;13.486;2023-06-19T19:49:55;19.60;99.90
80964;DHT22;70425;59.322;13.486;2023-06-19T19:52:53;19.60;99.90
80964;DHT22;70425;59.322;13.486;2023-06-19T19:55:43;19.50;99.90
80964;DHT22;70425;59.322;13.486;2023-06-19T19:58:37;19.40;99.90
80964;DHT22;70425;59.322;13.486;2023-06-19T20:01:31;19.40;99.90
80964;DHT22;70425;59.322;13.486;2023-06-19T20:13:58;19.30;99.90
80964;DHT22;70425;59.322;13.486;2023-06-19T20:17:03;19.20;99.90
80964;DHT22;70425;59.322;13.486;2023-06-19T20:19:55;19.20;99.90
80964;DHT22;70425;59.322;13.486;2023-06-19T20:23:00;19.10;99.90
80964;DHT22;70425;59.322;13.486;2023-06-19T20:25:54;19.00;99.90
80964;DHT22;70425;59.322;13.486;2023-06-19T20:28:44;19.00;99.90
80964;DHT22;70425;59.322;13.486;2023-06-19T21:19:00;18.40;99.90
80964;DHT22;70425;59.322;13.486;2023-06-19T21:21:49;18.40;99.90
80964;DHT22;70425;59.322;13.486;2023-06-19T21:24:41;18.30;99.90
80964;DHT22;70425;59.322;13.486;2023-06-19T21:27:49;18.30;99.90
80964;DHT22;70425;59.322;13.486;2023-06-19T21:31:07;18.20;99.90
80964;DHT22;70425;59.322;13.486;2023-06-19T21:34:14;18.20;99.90
80964;DHT22;70425;59.322;13.486;2023-06-19T21:37:25;18.20;99.90
80964;DHT22;70425;59.322;13.486;2023-06-19T21:46:41;18.20;99.90
80964;DHT22;70425;59.322;13.486;2023-06-19T22:34:59;17.80;99.90
80964;DHT22;70425;59.322;13.486;2023-06-19T22:37:48;17.80;99.90
80964;DHT22;70425;59.322;13.486;2023-06-19T22:40:39;17.80;99.90
80964;DHT22;70425;59.322;13.486;2023-06-19T22:43:28;17.80;99.90
80964;DHT22;70425;59.322;13.486;2023-06-19T22:46:24;17.70;99.90
80964;DHT22;70425;59.322;13.486;2023-06-19T22:52:25;17.60;99.90
80964;DHT22;70425;59.322;13.486;2023-06-19T22:55:14;17.60;99.90
80964;DHT22;70425;59.322;13.486;2023-06-19T23:00:56;17.60;99.90
80964;DHT22;70425;59.322;13.486;2023-06-19T23:03:45;17.60;99.90
80964;DHT22;70425;59.322;13.486;2023-06-19T23:06:34;17.60;99.90
80964;DHT22;70425;59.322;13.486;2023-06-19T23:09:27;17.60;99.90
